<?xml version="1.0" encoding="UTF-8"?>
<gpx creator="Wikiloc - https://www.wikiloc.com" version="1.1" xmlns="http://www.topografix.com/GPX/1/1" xmlns:xsi="http://www.w3.org/2001/XMLSchema-instance" xsi:schemaLocation="http://www.topografix.com/GPX/1/1 http://www.topografix.com/GPX/1/1/gpx.xsd">
  <metadata>
    <name>Wikiloc - Paseos Rurales - Virgen del Ara</name>
    <link href="https://www.wikiloc.com/hiking-trails/paseos-rurales-virgen-del-ara-30932195">
      <text>Paseos Rurales - Virgen del Ara on Wikiloc</text>
    </link>
    <time>2019-02-09T11:38:55Z</time>
  </metadata>
  <trk>
    <name>Paseos Rurales - Virgen del Ara</name>
    <cmt></cmt>
    <desc></desc>
    <trkseg>
      <trkpt lat="38.152136" lon="-5.896987">
        <ele>695.459</ele>
        <time>2019-02-09T11:38:55Z</time>
      </trkpt>
      <trkpt lat="38.152265" lon="-5.897157">
        <ele>694.803</ele>
        <time>2019-02-09T11:39:35Z</time>
      </trkpt>
      <trkpt lat="38.152194" lon="-5.897478">
        <ele>696.023</ele>
        <time>2019-02-09T11:40:15Z</time>
      </trkpt>
      <trkpt lat="38.151813" lon="-5.897896">
        <ele>699.208</ele>
        <time>2019-02-09T11:40:55Z</time>
      </trkpt>
      <trkpt lat="38.151993" lon="-5.898111">
        <ele>699.478</ele>
        <time>2019-02-09T11:41:35Z</time>
      </trkpt>
      <trkpt lat="38.151464" lon="-5.898609">
        <ele>706.425</ele>
        <time>2019-02-09T11:42:15Z</time>
      </trkpt>
      <trkpt lat="38.151682" lon="-5.899471">
        <ele>709.314</ele>
        <time>2019-02-09T11:42:55Z</time>
      </trkpt>
      <trkpt lat="38.151586" lon="-5.902980">
        <ele>721.548</ele>
        <time>2019-02-09T11:43:35Z</time>
      </trkpt>
      <trkpt lat="38.151690" lon="-5.904087">
        <ele>727.747</ele>
        <time>2019-02-09T11:44:15Z</time>
      </trkpt>
      <trkpt lat="38.150933" lon="-5.905004">
        <ele>731.196</ele>
        <time>2019-02-09T11:44:55Z</time>
      </trkpt>
      <trkpt lat="38.150182" lon="-5.904956">
        <ele>723.294</ele>
        <time>2019-02-09T11:45:35Z</time>
      </trkpt>
      <trkpt lat="38.149785" lon="-5.905138">
        <ele>721.130</ele>
        <time>2019-02-09T11:46:15Z</time>
      </trkpt>
      <trkpt lat="38.148622" lon="-5.906882">
        <ele>734.433</ele>
        <time>2019-02-09T11:46:55Z</time>
      </trkpt>
      <trkpt lat="38.147822" lon="-5.907450">
        <ele>748.223</ele>
        <time>2019-02-09T11:47:35Z</time>
      </trkpt>
      <trkpt lat="38.147667" lon="-5.909242">
        <ele>758.015</ele>
        <time>2019-02-09T11:48:15Z</time>
      </trkpt>
      <trkpt lat="38.147854" lon="-5.911018">
        <ele>767.208</ele>
        <time>2019-02-09T11:48:55Z</time>
      </trkpt>
      <trkpt lat="38.147655" lon="-5.911780">
        <ele>765.156</ele>
        <time>2019-02-09T11:49:35Z</time>
      </trkpt>
      <trkpt lat="38.147274" lon="-5.912686">
        <ele>761.153</ele>
        <time>2019-02-09T11:50:15Z</time>
      </trkpt>
      <trkpt lat="38.145155" lon="-5.914167">
        <ele>735.672</ele>
        <time>2019-02-09T11:50:55Z</time>
      </trkpt>
      <trkpt lat="38.144427" lon="-5.915374">
        <ele>720.646</ele>
        <time>2019-02-09T11:51:35Z</time>
      </trkpt>
      <trkpt lat="38.144078" lon="-5.915712">
        <ele>714.415</ele>
        <time>2019-02-09T11:52:15Z</time>
      </trkpt>
      <trkpt lat="38.143846" lon="-5.916254">
        <ele>706.724</ele>
        <time>2019-02-09T11:52:55Z</time>
      </trkpt>
      <trkpt lat="38.143594" lon="-5.918180">
        <ele>688.872</ele>
        <time>2019-02-09T11:53:35Z</time>
      </trkpt>
      <trkpt lat="38.143390" lon="-5.918674">
        <ele>684.888</ele>
        <time>2019-02-09T11:54:15Z</time>
      </trkpt>
      <trkpt lat="38.143524" lon="-5.920476">
        <ele>666.786</ele>
        <time>2019-02-09T11:54:55Z</time>
      </trkpt>
      <trkpt lat="38.143363" lon="-5.920862">
        <ele>661.860</ele>
        <time>2019-02-09T11:55:35Z</time>
      </trkpt>
      <trkpt lat="38.142696" lon="-5.921704">
        <ele>650.726</ele>
        <time>2019-02-09T11:56:15Z</time>
      </trkpt>
      <trkpt lat="38.141932" lon="-5.922336">
        <ele>640.608</ele>
        <time>2019-02-09T11:56:55Z</time>
      </trkpt>
      <trkpt lat="38.141595" lon="-5.923538">
        <ele>632.831</ele>
        <time>2019-02-09T11:57:35Z</time>
      </trkpt>
      <trkpt lat="38.141156" lon="-5.923605">
        <ele>637.338</ele>
        <time>2019-02-09T11:58:15Z</time>
      </trkpt>
      <trkpt lat="38.140659" lon="-5.923487">
        <ele>642.187</ele>
        <time>2019-02-09T11:58:55Z</time>
      </trkpt>
      <trkpt lat="38.140083" lon="-5.923918">
        <ele>644.731</ele>
        <time>2019-02-09T11:59:35Z</time>
      </trkpt>
      <trkpt lat="38.139929" lon="-5.924501">
        <ele>644.310</ele>
        <time>2019-02-09T12:00:15Z</time>
      </trkpt>
      <trkpt lat="38.139186" lon="-5.925499">
        <ele>649.449</ele>
        <time>2019-02-09T12:00:55Z</time>
      </trkpt>
      <trkpt lat="38.139355" lon="-5.925928">
        <ele>646.057</ele>
        <time>2019-02-09T12:01:35Z</time>
      </trkpt>
      <trkpt lat="38.138783" lon="-5.926991">
        <ele>630.263</ele>
        <time>2019-02-09T12:02:15Z</time>
      </trkpt>
      <trkpt lat="38.138429" lon="-5.927458">
        <ele>624.824</ele>
        <time>2019-02-09T12:02:55Z</time>
      </trkpt>
      <trkpt lat="38.137894" lon="-5.927613">
        <ele>617.404</ele>
        <time>2019-02-09T12:03:35Z</time>
      </trkpt>
      <trkpt lat="38.137652" lon="-5.928274">
        <ele>617.314</ele>
        <time>2019-02-09T12:04:15Z</time>
      </trkpt>
      <trkpt lat="38.137169" lon="-5.928555">
        <ele>611.608</ele>
        <time>2019-02-09T12:04:55Z</time>
      </trkpt>
      <trkpt lat="38.136635" lon="-5.929922">
        <ele>595.645</ele>
        <time>2019-02-09T12:05:35Z</time>
      </trkpt>
      <trkpt lat="38.136351" lon="-5.930168">
        <ele>587.812</ele>
        <time>2019-02-09T12:06:15Z</time>
      </trkpt>
      <trkpt lat="38.136351" lon="-5.930495">
        <ele>587.681</ele>
        <time>2019-02-09T12:06:55Z</time>
      </trkpt>
      <trkpt lat="38.136120" lon="-5.930704">
        <ele>584.035</ele>
        <time>2019-02-09T12:07:35Z</time>
      </trkpt>
      <trkpt lat="38.136249" lon="-5.931385">
        <ele>579.374</ele>
        <time>2019-02-09T12:08:15Z</time>
      </trkpt>
      <trkpt lat="38.136125" lon="-5.932061">
        <ele>573.473</ele>
        <time>2019-02-09T12:08:55Z</time>
      </trkpt>
      <trkpt lat="38.135176" lon="-5.933000">
        <ele>568.611</ele>
        <time>2019-02-09T12:09:35Z</time>
      </trkpt>
      <trkpt lat="38.134452" lon="-5.932893">
        <ele>564.777</ele>
        <time>2019-02-09T12:10:15Z</time>
      </trkpt>
      <trkpt lat="38.133918" lon="-5.933503">
        <ele>558.713</ele>
        <time>2019-02-09T12:10:55Z</time>
      </trkpt>
      <trkpt lat="38.133813" lon="-5.934517">
        <ele>545.343</ele>
        <time>2019-02-09T12:11:35Z</time>
      </trkpt>
      <trkpt lat="38.133448" lon="-5.935086">
        <ele>536.607</ele>
        <time>2019-02-09T12:12:15Z</time>
      </trkpt>
      <trkpt lat="38.133617" lon="-5.935743">
        <ele>525.908</ele>
        <time>2019-02-09T12:12:55Z</time>
      </trkpt>
      <trkpt lat="38.133216" lon="-5.935522">
        <ele>524.874</ele>
        <time>2019-02-09T12:13:35Z</time>
      </trkpt>
      <trkpt lat="38.132995" lon="-5.935096">
        <ele>524.441</ele>
        <time>2019-02-09T12:14:15Z</time>
      </trkpt>
      <trkpt lat="38.132879" lon="-5.935108">
        <ele>526.630</ele>
        <time>2019-02-09T12:14:55Z</time>
      </trkpt>
      <trkpt lat="38.133119" lon="-5.936280">
        <ele>537.634</ele>
        <time>2019-02-09T12:15:35Z</time>
      </trkpt>
      <trkpt lat="38.133016" lon="-5.936398">
        <ele>539.253</ele>
        <time>2019-02-09T12:16:15Z</time>
      </trkpt>
      <trkpt lat="38.132543" lon="-5.936415">
        <ele>546.692</ele>
        <time>2019-02-09T12:16:55Z</time>
      </trkpt>
      <trkpt lat="38.132142" lon="-5.936928">
        <ele>551.120</ele>
        <time>2019-02-09T12:17:35Z</time>
      </trkpt>
      <trkpt lat="38.131932" lon="-5.938401">
        <ele>557.956</ele>
        <time>2019-02-09T12:18:15Z</time>
      </trkpt>
      <trkpt lat="38.131432" lon="-5.939364">
        <ele>570.438</ele>
        <time>2019-02-09T12:18:55Z</time>
      </trkpt>
      <trkpt lat="38.131203" lon="-5.940163">
        <ele>577.170</ele>
        <time>2019-02-09T12:19:35Z</time>
      </trkpt>
      <trkpt lat="38.131349" lon="-5.940432">
        <ele>577.217</ele>
        <time>2019-02-09T12:20:15Z</time>
      </trkpt>
      <trkpt lat="38.131243" lon="-5.940178">
        <ele>576.708</ele>
        <time>2019-02-09T12:20:55Z</time>
      </trkpt>
      <trkpt lat="38.131468" lon="-5.939333">
        <ele>566.626</ele>
        <time>2019-02-09T12:21:35Z</time>
      </trkpt>
      <trkpt lat="38.131906" lon="-5.938572">
        <ele>558.993</ele>
        <time>2019-02-09T12:22:15Z</time>
      </trkpt>
      <trkpt lat="38.132201" lon="-5.936829">
        <ele>550.432</ele>
        <time>2019-02-09T12:22:55Z</time>
      </trkpt>
      <trkpt lat="38.132617" lon="-5.936389">
        <ele>545.766</ele>
        <time>2019-02-09T12:23:35Z</time>
      </trkpt>
      <trkpt lat="38.132990" lon="-5.936419">
        <ele>539.335</ele>
        <time>2019-02-09T12:24:15Z</time>
      </trkpt>
      <trkpt lat="38.133136" lon="-5.936287">
        <ele>537.014</ele>
        <time>2019-02-09T12:24:55Z</time>
      </trkpt>
      <trkpt lat="38.132899" lon="-5.935611">
        <ele>529.582</ele>
        <time>2019-02-09T12:25:35Z</time>
      </trkpt>
      <trkpt lat="38.132878" lon="-5.935074">
        <ele>526.258</ele>
        <time>2019-02-09T12:26:15Z</time>
      </trkpt>
      <trkpt lat="38.133241" lon="-5.935554">
        <ele>524.335</ele>
        <time>2019-02-09T12:26:55Z</time>
      </trkpt>
      <trkpt lat="38.133612" lon="-5.935713">
        <ele>526.386</ele>
        <time>2019-02-09T12:27:35Z</time>
      </trkpt>
      <trkpt lat="38.133414" lon="-5.935154">
        <ele>534.714</ele>
        <time>2019-02-09T12:28:15Z</time>
      </trkpt>
      <trkpt lat="38.133772" lon="-5.934503">
        <ele>543.908</ele>
        <time>2019-02-09T12:28:55Z</time>
      </trkpt>
      <trkpt lat="38.133891" lon="-5.933530">
        <ele>558.336</ele>
        <time>2019-02-09T12:29:35Z</time>
      </trkpt>
      <trkpt lat="38.134417" lon="-5.932883">
        <ele>563.813</ele>
        <time>2019-02-09T12:30:15Z</time>
      </trkpt>
      <trkpt lat="38.135101" lon="-5.933006">
        <ele>567.612</ele>
        <time>2019-02-09T12:30:55Z</time>
      </trkpt>
      <trkpt lat="38.136104" lon="-5.932032">
        <ele>572.656</ele>
        <time>2019-02-09T12:31:35Z</time>
      </trkpt>
      <trkpt lat="38.136229" lon="-5.931482">
        <ele>578.155</ele>
        <time>2019-02-09T12:32:15Z</time>
      </trkpt>
      <trkpt lat="38.136094" lon="-5.930663">
        <ele>584.374</ele>
        <time>2019-02-09T12:32:55Z</time>
      </trkpt>
      <trkpt lat="38.136316" lon="-5.930476">
        <ele>587.212</ele>
        <time>2019-02-09T12:33:35Z</time>
      </trkpt>
      <trkpt lat="38.136346" lon="-5.930065">
        <ele>587.368</ele>
        <time>2019-02-09T12:34:15Z</time>
      </trkpt>
      <trkpt lat="38.136639" lon="-5.929859">
        <ele>596.332</ele>
        <time>2019-02-09T12:34:55Z</time>
      </trkpt>
      <trkpt lat="38.137140" lon="-5.928564">
        <ele>610.792</ele>
        <time>2019-02-09T12:35:35Z</time>
      </trkpt>
      <trkpt lat="38.137652" lon="-5.928246">
        <ele>616.511</ele>
        <time>2019-02-09T12:36:15Z</time>
      </trkpt>
      <trkpt lat="38.137864" lon="-5.927625">
        <ele>616.808</ele>
        <time>2019-02-09T12:36:55Z</time>
      </trkpt>
      <trkpt lat="38.138457" lon="-5.927456">
        <ele>625.016</ele>
        <time>2019-02-09T12:37:35Z</time>
      </trkpt>
      <trkpt lat="38.138773" lon="-5.927036">
        <ele>629.643</ele>
        <time>2019-02-09T12:38:15Z</time>
      </trkpt>
      <trkpt lat="38.139372" lon="-5.925924">
        <ele>646.372</ele>
        <time>2019-02-09T12:38:55Z</time>
      </trkpt>
      <trkpt lat="38.139218" lon="-5.925480">
        <ele>649.996</ele>
        <time>2019-02-09T12:39:35Z</time>
      </trkpt>
      <trkpt lat="38.139912" lon="-5.924561">
        <ele>644.965</ele>
        <time>2019-02-09T12:40:15Z</time>
      </trkpt>
      <trkpt lat="38.140098" lon="-5.923943">
        <ele>645.474</ele>
        <time>2019-02-09T12:40:55Z</time>
      </trkpt>
      <trkpt lat="38.140581" lon="-5.923533">
        <ele>644.252</ele>
        <time>2019-02-09T12:41:35Z</time>
      </trkpt>
      <trkpt lat="38.141137" lon="-5.923626">
        <ele>638.288</ele>
        <time>2019-02-09T12:42:15Z</time>
      </trkpt>
      <trkpt lat="38.141657" lon="-5.923449">
        <ele>631.725</ele>
        <time>2019-02-09T12:42:55Z</time>
      </trkpt>
      <trkpt lat="38.141895" lon="-5.922320">
        <ele>640.326</ele>
        <time>2019-02-09T12:43:35Z</time>
      </trkpt>
      <trkpt lat="38.142891" lon="-5.921474">
        <ele>653.308</ele>
        <time>2019-02-09T12:44:15Z</time>
      </trkpt>
      <trkpt lat="38.143553" lon="-5.920596">
        <ele>665.208</ele>
        <time>2019-02-09T12:44:55Z</time>
      </trkpt>
      <trkpt lat="38.143362" lon="-5.918734">
        <ele>683.675</ele>
        <time>2019-02-09T12:45:35Z</time>
      </trkpt>
      <trkpt lat="38.143568" lon="-5.918291">
        <ele>688.082</ele>
        <time>2019-02-09T12:46:15Z</time>
      </trkpt>
      <trkpt lat="38.143852" lon="-5.916304">
        <ele>706.411</ele>
        <time>2019-02-09T12:46:55Z</time>
      </trkpt>
      <trkpt lat="38.144080" lon="-5.915744">
        <ele>713.985</ele>
        <time>2019-02-09T12:47:35Z</time>
      </trkpt>
      <trkpt lat="38.144433" lon="-5.915398">
        <ele>720.214</ele>
        <time>2019-02-09T12:48:15Z</time>
      </trkpt>
      <trkpt lat="38.145260" lon="-5.914047">
        <ele>737.343</ele>
        <time>2019-02-09T12:48:55Z</time>
      </trkpt>
      <trkpt lat="38.147286" lon="-5.912699">
        <ele>761.151</ele>
        <time>2019-02-09T12:49:35Z</time>
      </trkpt>
      <trkpt lat="38.147675" lon="-5.911788">
        <ele>764.997</ele>
        <time>2019-02-09T12:50:15Z</time>
      </trkpt>
      <trkpt lat="38.147851" lon="-5.910871">
        <ele>767.338</ele>
        <time>2019-02-09T12:50:55Z</time>
      </trkpt>
      <trkpt lat="38.147662" lon="-5.909008">
        <ele>757.670</ele>
        <time>2019-02-09T12:51:35Z</time>
      </trkpt>
      <trkpt lat="38.147790" lon="-5.907534">
        <ele>749.817</ele>
        <time>2019-02-09T12:52:15Z</time>
      </trkpt>
      <trkpt lat="38.148013" lon="-5.907253">
        <ele>743.908</ele>
        <time>2019-02-09T12:52:55Z</time>
      </trkpt>
      <trkpt lat="38.148573" lon="-5.906959">
        <ele>735.956</ele>
        <time>2019-02-09T12:53:35Z</time>
      </trkpt>
      <trkpt lat="38.149811" lon="-5.905154">
        <ele>720.823</ele>
        <time>2019-02-09T12:54:15Z</time>
      </trkpt>
      <trkpt lat="38.150288" lon="-5.904945">
        <ele>724.422</ele>
        <time>2019-02-09T12:54:55Z</time>
      </trkpt>
      <trkpt lat="38.151079" lon="-5.904943">
        <ele>731.636</ele>
        <time>2019-02-09T12:55:35Z</time>
      </trkpt>
      <trkpt lat="38.151651" lon="-5.904085">
        <ele>727.865</ele>
        <time>2019-02-09T12:56:15Z</time>
      </trkpt>
      <trkpt lat="38.151564" lon="-5.902412">
        <ele>720.044</ele>
        <time>2019-02-09T12:56:55Z</time>
      </trkpt>
      <trkpt lat="38.151696" lon="-5.899564">
        <ele>709.452</ele>
        <time>2019-02-09T12:57:35Z</time>
      </trkpt>
      <trkpt lat="38.151552" lon="-5.898864">
        <ele>708.788</ele>
        <time>2019-02-09T12:58:15Z</time>
      </trkpt>
      <trkpt lat="38.151136" lon="-5.897942">
        <ele>706.559</ele>
        <time>2019-02-09T12:58:55Z</time>
      </trkpt>
      <trkpt lat="38.152091" lon="-5.897004">
        <ele>695.503</ele>
        <time>2019-02-09T12:59:35Z</time>
      </trkpt>
    </trkseg>
  </trk></gpx>